Time;durP1;ratioP1;P1;durP2;ratioP2;P2;SDS_P1;SDS_P2;PMS_P1;PMS_P2;Temp;Humidity;BMP_temperature;BMP_pressure;BME280_temperature;BME280_humidity;BME280_pressure;Samples;Min_cycle;Max_cycle;Signal;HPM_P1;HPM_P2
2021/09/12 00:00:45;;;;;;;2.38;1.80;;;21.70;68.50;;;;;;4937752;29;20388;-85
2021/09/12 00:03:10;;;;;;;2.85;2.00;;;21.70;68.50;;;;;;4973599;28;20046;-88
2021/09/12 00:05:36;;;;;;;2.92;1.98;;;21.70;68.50;;;;;;4951832;28;20097;-88
2021/09/12 00:08:03;;;;;;;2.83;1.80;;;21.70;68.50;;;;;;4951895;28;20039;-88
2021/09/12 00:10:29;;;;;;;2.80;1.58;;;21.70;68.50;;;;;;4943010;28;20035;-88
2021/09/12 00:12:56;;;;;;;3.25;2.30;;;21.70;68.50;;;;;;4976372;28;20131;-88
2021/09/12 00:15:23;;;;;;;2.75;1.85;;;21.70;68.50;;;;;;4943270;28;20506;-89
2021/09/12 00:17:48;;;;;;;3.65;2.05;;;21.70;68.50;;;;;;4960017;28;20026;-88
2021/09/12 00:20:14;;;;;;;2.85;1.98;;;21.70;68.50;;;;;;4975873;28;20034;-89
2021/09/12 00:22:40;;;;;;;2.65;2.03;;;21.60;68.50;;;;;;4975551;28;20054;-88
2021/09/12 00:25:07;;;;;;;3.33;1.90;;;21.60;68.50;;;;;;4970117;28;20035;-90
2021/09/12 00:27:33;;;;;;;4.38;2.20;;;21.60;68.50;;;;;;4976306;28;20045;-88
2021/09/12 00:29:59;;;;;;;3.63;2.33;;;21.60;68.50;;;;;;4958770;28;20478;-90
2021/09/12 00:32:25;;;;;;;4.03;2.22;;;21.60;68.50;;;;;;4926625;28;20043;-89
2021/09/12 00:34:51;;;;;;;3.53;2.30;;;21.60;68.50;;;;;;4959611;28;20075;-88
2021/09/12 00:37:18;;;;;;;3.40;2.28;;;21.60;68.60;;;;;;4959486;28;20031;-89
2021/09/12 00:39:43;;;;;;;3.08;2.00;;;21.60;68.60;;;;;;4950936;28;20480;-90
2021/09/12 00:42:09;;;;;;;3.60;2.10;;;21.60;68.60;;;;;;4958995;28;20138;-91
2021/09/12 00:44:35;;;;;;;2.88;2.05;;;21.60;68.60;;;;;;4958971;28;20054;-90
2021/09/12 00:47:12;;;;;;;5.20;2.63;;;21.50;68.50;;;;;;4967098;28;20530;-90
2021/09/12 00:49:39;;;;;;;3.38;2.25;;;21.50;68.60;;;;;;4942852;28;20514;-90
2021/09/12 00:52:13;;;;;;;4.25;2.15;;;21.50;68.60;;;;;;4942255;28;20039;-91
2021/09/12 00:54:39;;;;;;;4.35;2.50;;;21.50;68.60;;;;;;4974727;28;20039;-90
2021/09/12 00:57:07;;;;;;;3.95;2.33;;;21.50;68.60;;;;;;4927359;28;20127;-89
2021/09/12 00:59:36;;;;;;;3.65;2.30;;;21.50;68.60;;;;;;4970965;28;20047;-90
2021/09/12 01:02:04;;;;;;;3.47;2.58;;;21.50;68.70;;;;;;4955891;28;20530;-90
2021/09/12 01:04:31;;;;;;;2.80;2.00;;;21.50;68.60;;;;;;4957932;28;20026;-90
2021/09/12 01:06:58;;;;;;;3.83;2.47;;;21.50;68.60;;;;;;4958664;28;20121;-89
2021/09/12 01:09:24;;;;;;;5.28;2.88;;;21.50;68.60;;;;;;4975119;28;20034;-90
2021/09/12 01:11:50;;;;;;;4.55;2.45;;;21.50;68.60;;;;;;4958555;28;20046;-89
2021/09/12 01:14:22;;;;;;;4.78;2.70;;;21.40;68.60;;;;;;4955165;28;20054;-89
2021/09/12 01:16:48;;;;;;;4.55;2.80;;;21.40;68.70;;;;;;4939315;29;20027;-89
2021/09/12 01:19:13;;;;;;;3.10;2.22;;;21.40;68.70;;;;;;4970503;28;20109;-90
2021/09/12 01:21:41;;;;;;;3.92;2.47;;;21.40;68.70;;;;;;4958528;28;20043;-91
2021/09/12 01:24:10;;;;;;;3.70;2.70;;;21.40;68.60;;;;;;4950002;28;20038;-89
2021/09/12 01:26:36;;;;;;;4.43;2.80;;;21.40;68.70;;;;;;4958122;28;20027;-89
2021/09/12 01:29:02;;;;;;;4.00;2.70;;;21.40;68.70;;;;;;4960645;28;20497;-89
2021/09/12 01:31:30;;;;;;;4.07;2.80;;;21.40;68.70;;;;;;4946373;28;20039;-89
2021/09/12 01:33:57;;;;;;;4.47;2.90;;;21.40;68.70;;;;;;4974594;28;20030;-89
2021/09/12 01:36:23;;;;;;;4.38;2.75;;;21.40;68.70;;;;;;4966298;28;20031;-89
2021/09/12 01:38:49;;;;;;;4.50;2.70;;;21.40;68.70;;;;;;4965121;28;20031;-89
2021/09/12 01:41:15;;;;;;;4.55;3.00;;;21.40;68.70;;;;;;4926082;28;20038;-90
2021/09/12 01:43:58;;;;;;;5.95;3.15;;;21.30;68.70;;;;;;4957588;28;20023;-90
2021/09/12 01:46:24;;;;;;;4.65;2.83;;;21.30;68.80;;;;;;4935721;28;20027;-89
2021/09/12 01:48:52;;;;;;;4.30;2.63;;;21.40;68.70;;;;;;4942017;28;20496;-89
2021/09/12 01:51:18;;;;;;;4.38;2.92;;;21.30;68.70;;;;;;4974775;28;20022;-90
2021/09/12 01:53:45;;;;;;;3.70;2.45;;;21.30;68.70;;;;;;4960172;28;20043;-90
2021/09/12 01:56:11;;;;;;;4.97;2.80;;;21.30;68.70;;;;;;4940412;28;20056;-90
2021/09/12 01:58:36;;;;;;;4.85;3.30;;;21.30;68.70;;;;;;4949503;28;20038;-90
2021/09/12 02:01:03;;;;;;;4.70;2.70;;;21.30;68.70;;;;;;4974437;28;20030;-90
2021/09/12 02:03:29;;;;;;;3.95;3.00;;;21.30;68.70;;;;;;4965891;28;20045;-88
2021/09/12 02:05:55;;;;;;;4.40;2.75;;;21.30;68.70;;;;;;4969443;28;20039;-88
2021/09/12 02:08:21;;;;;;;4.20;2.72;;;21.30;68.70;;;;;;4934107;28;20053;-90
2021/09/12 02:10:47;;;;;;;3.97;2.85;;;21.30;68.70;;;;;;4959028;28;20035;-90
2021/09/12 02:13:13;;;;;;;4.88;2.83;;;21.20;68.60;;;;;;4957849;28;20047;-90
2021/09/12 02:15:39;;;;;;;4.63;2.90;;;21.30;68.70;;;;;;4974132;28;20038;-90
2021/09/12 02:18:05;;;;;;;3.78;2.65;;;21.20;68.70;;;;;;4940773;28;20019;-89
2021/09/12 02:20:31;;;;;;;4.43;2.70;;;21.20;68.70;;;;;;4930755;28;20062;-89
2021/09/12 02:22:58;;;;;;;4.15;2.80;;;21.20;68.70;;;;;;4957641;28;20109;-89
2021/09/12 02:25:24;;;;;;;3.92;2.85;;;21.20;68.70;;;;;;4941278;28;20127;-89
2021/09/12 02:27:49;;;;;;;4.35;2.80;;;21.20;68.70;;;;;;4957334;28;20023;-90
2021/09/12 02:30:15;;;;;;;3.35;2.35;;;21.20;68.80;;;;;;4957428;28;20041;-90
2021/09/12 02:32:41;;;;;;;3.38;2.40;;;21.20;68.70;;;;;;4947843;28;20507;-89
2021/09/12 02:35:08;;;;;;;3.92;2.67;;;21.10;68.70;;;;;;4965465;28;20396;-89
2021/09/12 02:37:34;;;;;;;3.33;2.53;;;21.20;68.80;;;;;;4974191;28;20031;-89
2021/09/12 02:40:00;;;;;;;4.55;2.72;;;21.10;68.70;;;;;;4957506;28;20372;-89
2021/09/12 02:42:26;;;;;;;3.42;2.42;;;21.10;68.70;;;;;;4941612;28;20039;-90
2021/09/12 02:44:52;;;;;;;3.75;2.70;;;21.10;68.70;;;;;;4957343;28;20034;-90
2021/09/12 02:47:19;;;;;;;2.90;2.25;;;21.10;68.70;;;;;;4937339;29;20024;-90
2021/09/12 02:49:45;;;;;;;3.50;2.47;;;21.00;68.70;;;;;;4969964;28;20392;-90
2021/09/12 02:52:11;;;;;;;3.90;2.67;;;21.00;68.70;;;;;;4957448;28;20176;-89
2021/09/12 02:54:37;;;;;;;3.95;2.42;;;21.00;68.70;;;;;;4973998;28;20057;-90
2021/09/12 02:57:03;;;;;;;3.10;2.25;;;21.00;68.70;;;;;;4948883;28;20043;-89
2021/09/12 02:59:29;;;;;;;3.83;2.33;;;21.00;68.70;;;;;;4940759;28;20039;-90
2021/09/12 03:01:55;;;;;;;3.00;2.20;;;21.00;68.70;;;;;;4941350;28;20199;-89
2021/09/12 03:04:20;;;;;;;3.55;2.25;;;21.00;68.80;;;;;;4956816;28;20482;-90
2021/09/12 03:06:46;;;;;;;3.33;2.17;;;21.00;68.70;;;;;;4925439;28;20031;-89
2021/09/12 03:09:12;;;;;;;2.88;2.15;;;21.00;68.70;;;;;;4940677;28;20058;-89
2021/09/12 03:11:38;;;;;;;2.80;1.90;;;20.90;68.60;;;;;;4940960;28;20069;-89
2021/09/12 03:14:04;;;;;;;3.45;2.13;;;20.90;68.70;;;;;;4941267;28;20034;-90
2021/09/12 03:16:29;;;;;;;3.90;2.50;;;20.90;69.30;;;;;;4941556;28;20081;-90
2021/09/12 03:18:55;;;;;;;2.88;2.20;;;20.90;68.70;;;;;;4956882;28;20450;-90
2021/09/12 03:21:21;;;;;;;3.33;2.05;;;20.80;68.60;;;;;;4941196;28;20035;-90
2021/09/12 03:23:47;;;;;;;2.80;1.98;;;20.80;68.70;;;;;;4960248;28;20115;-89
2021/09/12 03:26:13;;;;;;;3.03;2.00;;;20.80;68.70;;;;;;4964062;28;20054;-90
2021/09/12 03:28:39;;;;;;;2.88;1.92;;;20.80;68.70;;;;;;4953176;28;20034;-89
2021/09/12 03:31:05;;;;;;;3.33;2.10;;;20.80;68.70;;;;;;4945466;28;20027;-89
2021/09/12 03:33:31;;;;;;;2.67;1.83;;;20.80;68.70;;;;;;4983866;28;20137;-90
2021/09/12 03:35:57;;;;;;;3.80;2.17;;;20.80;68.70;;;;;;4935488;28;20096;-89
2021/09/12 03:38:23;;;;;;;3.20;2.10;;;20.80;68.70;;;;;;4977407;28;20459;-90
2021/09/12 03:40:49;;;;;;;3.83;1.98;;;20.70;68.60;;;;;;4936137;28;20035;-89
2021/09/12 03:43:15;;;;;;;2.50;2.00;;;20.70;68.70;;;;;;4960193;28;20035;-89
2021/09/12 03:45:41;;;;;;;3.22;2.35;;;20.70;68.70;;;;;;4976891;28;20050;-89
2021/09/12 03:48:07;;;;;;;3.15;2.03;;;20.70;68.70;;;;;;4959739;28;20031;-91
2021/09/12 03:50:33;;;;;;;4.05;2.35;;;20.60;68.60;;;;;;4976049;28;20041;-90
2021/09/12 03:52:59;;;;;;;2.95;2.10;;;20.60;68.60;;;;;;4975172;28;20027;-91
2021/09/12 03:55:28;;;;;;;2.80;2.10;;;20.60;68.60;;;;;;4967838;28;20101;-90
2021/09/12 03:57:53;;;;;;;2.85;1.95;;;20.60;68.60;;;;;;4943488;28;20433;-91
2021/09/12 04:00:19;;;;;;;3.25;2.08;;;20.60;68.60;;;;;;4943482;28;20027;-91
2021/09/12 04:02:45;;;;;;;3.17;2.15;;;20.50;68.60;;;;;;4919162;28;20113;-89
2021/09/12 04:05:11;;;;;;;3.67;2.20;;;20.50;68.60;;;;;;4943289;28;20035;-91
2021/09/12 04:07:37;;;;;;;4.20;2.10;;;20.50;68.60;;;;;;4943656;28;20030;-91
2021/09/12 04:10:07;;;;;;;2.63;1.90;;;20.50;68.60;;;;;;4943075;28;20030;-90
2021/09/12 04:12:33;;;;;;;3.22;2.30;;;20.40;68.60;;;;;;4959217;28;20039;-89
2021/09/12 04:14:58;;;;;;;3.97;2.22;;;20.40;68.60;;;;;;4976168;28;20162;-90
2021/09/12 04:17:24;;;;;;;3.55;2.28;;;20.40;68.60;;;;;;4972877;28;20480;-90
2021/09/12 04:19:50;;;;;;;3.42;2.38;;;20.40;68.60;;;;;;4943333;28;20039;-90
2021/09/12 04:22:15;;;;;;;2.85;1.95;;;20.40;68.60;;;;;;4967504;28;20035;-90
2021/09/12 04:24:41;;;;;;;3.30;2.05;;;20.30;68.60;;;;;;4958748;28;20483;-89
2021/09/12 04:27:07;;;;;;;2.50;2.10;;;20.30;68.60;;;;;;4975931;28;20118;-90
2021/09/12 04:29:33;;;;;;;3.10;2.22;;;20.30;68.60;;;;;;4959303;28;20455;-90
2021/09/12 04:31:59;;;;;;;2.95;2.30;;;20.30;68.60;;;;;;4958615;28;20038;-91
2021/09/12 04:34:25;;;;;;;3.45;2.20;;;20.30;68.60;;;;;;4911234;29;20122;-90
2021/09/12 04:36:50;;;;;;;4.03;2.60;;;20.20;68.60;;;;;;4972982;28;20086;-90
2021/09/12 04:39:16;;;;;;;2.78;2.17;;;20.20;68.60;;;;;;4959029;28;20035;-90
2021/09/12 04:41:42;;;;;;;4.50;2.47;;;20.20;68.60;;;;;;4942647;28;20038;-89
2021/09/12 04:44:08;;;;;;;3.03;1.98;;;20.20;68.80;;;;;;4958488;28;20031;-89
2021/09/12 04:46:33;;;;;;;4.28;2.47;;;20.20;68.60;;;;;;4958805;28;20026;-90
2021/09/12 04:48:59;;;;;;;4.03;2.63;;;20.20;68.70;;;;;;4976120;28;20034;-90
2021/09/12 04:51:25;;;;;;;3.50;2.38;;;20.20;68.70;;;;;;4923920;29;20047;-90
2021/09/12 04:53:51;;;;;;;3.78;2.53;;;20.10;68.60;;;;;;4971749;28;20034;-90
2021/09/12 04:56:17;;;;;;;3.58;2.50;;;20.10;68.70;;;;;;4975335;28;20509;-89
2021/09/12 04:58:42;;;;;;;4.28;2.65;;;20.10;68.80;;;;;;4959042;28;20037;-90
2021/09/12 05:01:08;;;;;;;3.70;2.50;;;20.10;68.70;;;;;;4942683;28;20130;-90
2021/09/12 05:03:34;;;;;;;4.10;2.60;;;20.00;68.70;;;;;;4958788;28;20031;-90
2021/09/12 05:06:00;;;;;;;4.50;2.85;;;20.00;68.70;;;;;;4942122;28;20414;-90
2021/09/12 05:08:26;;;;;;;4.22;2.65;;;20.00;68.70;;;;;;4942608;28;20037;-90
2021/09/12 05:10:51;;;;;;;4.25;2.92;;;20.00;68.70;;;;;;4958358;28;20027;-90
2021/09/12 05:13:17;;;;;;;4.88;2.75;;;20.00;68.70;;;;;;4958757;28;20035;-92
2021/09/12 05:15:43;;;;;;;4.03;2.75;;;19.90;68.70;;;;;;4950624;28;20415;-90
2021/09/12 05:18:13;;;;;;;3.88;2.53;;;19.90;68.70;;;;;;4958206;28;20114;-90
2021/09/12 05:20:39;;;;;;;4.45;2.80;;;19.90;68.70;;;;;;4950242;28;20058;-90
2021/09/12 05:23:05;;;;;;;4.45;2.90;;;19.90;68.70;;;;;;4957927;28;20077;-90
2021/09/12 05:25:32;;;;;;;4.70;2.67;;;19.90;68.80;;;;;;4952572;28;20511;-90
2021/09/12 05:27:58;;;;;;;4.20;2.90;;;19.80;68.70;;;;;;4975146;28;20039;-89
2021/09/12 05:30:23;;;;;;;4.05;2.78;;;19.80;68.70;;;;;;4954245;28;20019;-90
2021/09/12 05:32:49;;;;;;;4.80;2.95;;;19.80;68.70;;;;;;4925995;28;20039;-89
2021/09/12 05:35:16;;;;;;;4.35;3.00;;;19.80;68.80;;;;;;4961954;28;20136;-90
2021/09/12 05:37:43;;;;;;;5.22;2.97;;;19.80;68.80;;;;;;4934451;28;20062;-90
2021/09/12 05:40:09;;;;;;;4.32;3.05;;;19.80;68.80;;;;;;4958124;28;20027;-91
2021/09/12 05:42:36;;;;;;;4.40;3.05;;;19.70;68.80;;;;;;4942433;28;20031;-91
2021/09/12 05:45:02;;;;;;;4.70;3.10;;;19.70;68.80;;;;;;4956738;28;20024;-90
2021/09/12 05:47:28;;;;;;;4.47;3.08;;;19.70;68.80;;;;;;4952915;28;20042;-91
2021/09/12 05:49:54;;;;;;;4.90;3.20;;;19.70;68.80;;;;;;4955766;28;20459;-91
2021/09/12 05:52:20;;;;;;;4.78;3.17;;;19.70;68.80;;;;;;4958631;28;20062;-91
2021/09/12 05:54:45;;;;;;;4.88;3.38;;;19.60;68.80;;;;;;4934112;28;20042;-91
2021/09/12 05:57:11;;;;;;;5.05;3.60;;;19.60;68.80;;;;;;4957364;28;20038;-91
2021/09/12 05:59:37;;;;;;;5.22;3.65;;;19.60;68.80;;;;;;4957179;28;20015;-91
2021/09/12 06:02:04;;;;;;;4.97;3.45;;;19.60;69.00;;;;;;4941237;28;20043;-91
2021/09/12 06:04:31;;;;;;;5.53;3.65;;;19.50;68.80;;;;;;4958038;28;20026;-91
2021/09/12 06:06:57;;;;;;;4.82;3.28;;;19.50;68.90;;;;;;4949714;28;20440;-92
2021/09/12 06:09:23;;;;;;;4.80;3.60;;;19.50;68.90;;;;;;4946242;28;20019;-93
2021/09/12 06:11:50;;;;;;;4.95;3.63;;;19.50;68.90;;;;;;4973804;28;20049;-91
2021/09/12 06:14:16;;;;;;;5.05;3.58;;;19.50;69.00;;;;;;4941701;28;20031;-91
2021/09/12 06:16:42;;;;;;;5.13;3.75;;;19.50;69.00;;;;;;4943614;28;20368;-91
2021/09/12 06:19:10;;;;;;;5.60;4.13;;;19.50;69.00;;;;;;4958394;28;20035;-91
2021/09/12 06:21:36;;;;;;;6.20;4.03;;;19.50;69.00;;;;;;4964643;28;20039;-92
2021/09/12 06:24:01;;;;;;;5.68;3.72;;;19.40;68.90;;;;;;4957027;28;20031;-91
2021/09/12 06:26:27;;;;;;;5.70;3.70;;;19.40;69.00;;;;;;4956959;28;20031;-90
2021/09/12 06:28:53;;;;;;;5.80;3.92;;;19.40;69.00;;;;;;4929786;29;20027;-91
2021/09/12 06:31:20;;;;;;;6.13;4.18;;;19.40;69.00;;;;;;4974009;28;20035;-92
2021/09/12 06:33:46;;;;;;;6.15;3.65;;;19.40;69.00;;;;;;4974638;28;20026;-90
2021/09/12 06:36:12;;;;;;;5.72;3.60;;;19.40;69.10;;;;;;4974438;28;20448;-90
2021/09/12 06:38:38;;;;;;;4.85;3.60;;;19.30;69.00;;;;;;4949582;28;20038;-90
2021/09/12 06:41:04;;;;;;;5.20;3.95;;;19.30;69.10;;;;;;4957553;28;20019;-91
2021/09/12 06:43:30;;;;;;;5.32;3.45;;;19.40;69.10;;;;;;4946387;28;20031;-87
2021/09/12 06:45:56;;;;;;;5.65;3.67;;;19.30;69.10;;;;;;4941332;28;20082;-89
2021/09/12 06:48:21;;;;;;;4.80;3.55;;;19.40;69.20;;;;;;4942876;28;20039;-90
2021/09/12 06:50:47;;;;;;;5.75;3.72;;;19.30;69.10;;;;;;4974661;28;20026;-87
2021/09/12 06:53:13;;;;;;;5.93;3.60;;;19.30;69.20;;;;;;4957135;28;20054;-88
2021/09/12 06:55:40;;;;;;;5.10;3.65;;;19.30;69.20;;;;;;4934920;28;20399;-90
2021/09/12 06:58:06;;;;;;;5.78;3.95;;;19.30;69.20;;;;;;4974026;28;20487;-89
2021/09/12 07:00:33;;;;;;;6.47;3.45;;;19.30;69.80;;;;;;4945137;28;20078;-89
2021/09/12 07:02:59;;;;;;;4.65;3.50;;;19.30;69.30;;;;;;4960264;28;20529;-87
2021/09/12 07:05:25;;;;;;;5.68;3.78;;;19.30;69.20;;;;;;4944038;28;20039;-86
2021/09/12 07:07:51;;;;;;;4.70;3.30;;;19.30;69.30;;;;;;4944372;28;20050;-86
2021/09/12 07:10:20;;;;;;;6.40;3.90;;;19.30;69.30;;;;;;4959443;28;20387;-86
2021/09/12 07:12:46;;;;;;;4.88;3.45;;;19.30;69.30;;;;;;4968284;28;20039;-84
2021/09/12 07:15:12;;;;;;;4.60;3.28;;;19.30;69.30;;;;;;4943106;28;20121;-86
2021/09/12 07:17:38;;;;;;;5.18;3.47;;;19.20;69.30;;;;;;4960026;28;20038;-84
2021/09/12 07:20:05;;;;;;;4.75;3.30;;;19.30;69.40;;;;;;4945897;28;20468;-88
2021/09/12 07:22:31;;;;;;;5.32;3.63;;;19.30;69.40;;;;;;4956433;28;20039;-86
2021/09/12 07:24:57;;;;;;;4.57;3.33;;;19.30;69.40;;;;;;4943554;28;20039;-86
2021/09/12 07:27:23;;;;;;;5.00;3.30;;;19.30;69.40;;;;;;4936068;28;20037;-85
2021/09/12 07:29:48;;;;;;;4.93;3.60;;;19.20;69.40;;;;;;4975794;28;20031;-86
2021/09/12 07:32:14;;;;;;;5.07;3.30;;;19.30;69.50;;;;;;4944274;28;20041;-88
2021/09/12 07:34:40;;;;;;;4.30;3.10;;;19.20;69.40;;;;;;4944334;28;20085;-84
2021/09/12 07:37:06;;;;;;;4.22;2.97;;;19.30;69.50;;;;;;4951031;28;20087;-89
2021/09/12 07:39:32;;;;;;;5.13;3.47;;;19.30;69.50;;;;;;4944191;28;20039;-85
2021/09/12 07:42:00;;;;;;;5.75;3.25;;;19.20;69.40;;;;;;4959323;28;20396;-88
2021/09/12 07:44:26;;;;;;;4.18;2.88;;;19.20;69.40;;;;;;4967751;28;20031;-85
2021/09/12 07:46:54;;;;;;;4.75;3.15;;;19.30;69.50;;;;;;4954468;28;20126;-91
2021/09/12 07:49:20;;;;;;;4.40;2.85;;;19.30;69.50;;;;;;4943286;28;20086;-86
2021/09/12 07:51:46;;;;;;;3.88;2.78;;;19.30;69.60;;;;;;4943528;28;20472;-86
2021/09/12 07:54:12;;;;;;;4.07;2.83;;;19.30;69.60;;;;;;4959366;28;20039;-85
2021/09/12 07:56:37;;;;;;;4.10;2.92;;;19.30;69.50;;;;;;4947904;28;20050;-84
2021/09/12 07:59:03;;;;;;;3.60;2.85;;;19.30;69.60;;;;;;4959278;28;20391;-85
2021/09/12 08:01:29;;;;;;;4.13;2.92;;;19.30;69.60;;;;;;4943537;28;20105;-84
2021/09/12 08:03:55;;;;;;;3.58;2.70;;;19.30;69.60;;;;;;4958777;28;20031;-85
2021/09/12 08:06:22;;;;;;;3.90;2.72;;;19.30;69.60;;;;;;4958738;28;20030;-84
2021/09/12 08:08:48;;;;;;;5.50;3.13;;;19.30;69.60;;;;;;4958922;28;20039;-85
2021/09/12 08:11:14;;;;;;;4.30;2.80;;;19.30;69.60;;;;;;4934861;28;20042;-84
2021/09/12 08:13:41;;;;;;;3.67;2.72;;;19.30;69.60;;;;;;4958943;28;20472;-83
2021/09/12 08:16:07;;;;;;;3.75;2.65;;;19.30;69.60;;;;;;4942995;28;20415;-87
2021/09/12 08:18:34;;;;;;;4.60;2.92;;;19.40;69.70;;;;;;4925774;28;20031;-88
2021/09/12 08:21:00;;;;;;;3.35;2.47;;;19.30;69.70;;;;;;4943288;28;20488;-87
2021/09/12 08:23:26;;;;;;;3.45;2.47;;;19.30;69.70;;;;;;4959168;28;20038;-88
2021/09/12 08:25:52;;;;;;;4.57;2.80;;;19.30;69.70;;;;;;4951418;28;20030;-84
2021/09/12 08:28:17;;;;;;;4.18;2.80;;;19.40;69.70;;;;;;4975517;28;20038;-84
2021/09/12 08:30:43;;;;;;;4.10;2.72;;;19.40;69.70;;;;;;4958409;28;20039;-86
2021/09/12 08:33:13;;;;;;;4.45;3.00;;;19.40;69.70;;;;;;4926235;28;20097;-86
2021/09/12 08:35:40;;;;;;;4.55;2.75;;;19.40;69.80;;;;;;4947682;29;20039;-86
2021/09/12 08:38:06;;;;;;;4.00;2.75;;;19.40;69.80;;;;;;4922951;29;20039;-86
2021/09/12 08:40:33;;;;;;;4.72;2.72;;;19.40;69.80;;;;;;4954773;28;20082;-89
2021/09/12 08:42:59;;;;;;;3.80;2.53;;;19.50;69.80;;;;;;4951768;28;20038;-90
2021/09/12 08:45:28;;;;;;;4.55;2.38;;;19.50;69.80;;;;;;4959164;28;20019;-91
2021/09/12 08:47:54;;;;;;;3.72;2.65;;;19.50;69.80;;;;;;4935696;28;20030;-90
2021/09/12 08:50:21;;;;;;;4.22;2.75;;;19.50;69.70;;;;;;4943517;28;20027;-91
2021/09/12 08:52:49;;;;;;;3.72;2.65;;;19.60;69.80;;;;;;4952227;28;20027;-92
2021/09/12 08:55:15;;;;;;;4.07;2.67;;;19.60;69.70;;;;;;4940824;28;20121;-92
2021/09/12 08:57:54;;;;;;;4.45;2.65;;;19.70;69.70;;;;;;4954032;28;20039;-92
2021/09/12 09:00:27;;;;;;;3.80;2.63;;;19.70;69.80;;;;;;4959239;28;20053;-93
2021/09/12 09:03:01;;;;;;;3.80;2.63;;;19.70;69.70;;;;;;4951765;28;20114;-95
2021/09/12 09:05:32;;;;;;;3.70;2.30;;;19.80;69.70;;;;;;4942757;28;20031;-93
2021/09/12 09:08:06;;;;;;;4.38;2.50;;;19.80;69.70;;;;;;4951152;28;20030;-91
2021/09/12 09:10:44;;;;;;;3.72;2.33;;;19.80;69.70;;;;;;4958453;28;20090;-92
2021/09/12 09:13:34;;;;;;;3.47;2.30;;;19.80;69.60;;;;;;4954628;28;20047;-90
2021/09/12 09:16:01;;;;;;;3.55;2.38;;;19.90;69.70;;;;;;4957789;28;20026;-92
2021/09/12 09:18:38;;;;;;;3.67;2.30;;;19.90;69.50;;;;;;4953906;28;20031;-90
2021/09/12 09:21:46;;;;;;;3.17;2.45;;;19.90;69.50;;;;;;4931399;28;20030;-90
2021/09/12 09:24:25;;;;;;;4.63;2.45;;;20.00;69.60;;;;;;4949506;28;20057;-92
2021/09/12 09:26:59;;;;;;;3.50;2.30;;;20.00;69.30;;;;;;4923102;28;20039;-90
2021/09/12 09:29:30;;;;;;;3.10;2.28;;;20.10;69.40;;;;;;4958817;28;20034;-87
2021/09/12 09:32:06;;;;;;;3.63;2.40;;;20.10;69.40;;;;;;4934124;28;20066;-92
2021/09/12 09:34:34;;;;;;;3.65;2.47;;;20.20;69.50;;;;;;4949868;28;20038;-85
2021/09/12 09:37:17;;;;;;;5.05;2.97;;;20.20;69.30;;;;;;4945687;28;20036;-86
2021/09/12 09:39:47;;;;;;;3.47;2.55;;;20.20;69.50;;;;;;4930413;28;20058;-85
2021/09/12 09:42:39;;;;;;;4.55;2.97;;;20.20;69.30;;;;;;4955154;28;20065;-88
2021/09/12 09:45:21;;;;;;;3.60;2.20;;;20.30;69.40;;;;;;4953980;28;20053;-86
2021/09/12 09:47:49;;;;;;;4.72;2.53;;;20.30;69.30;;;;;;4954382;28;20089;-79
2021/09/12 09:50:18;;;;;;;2.95;2.13;;;20.40;69.20;;;;;;4964868;28;20045;-81
2021/09/12 09:52:46;;;;;;;3.38;2.47;;;20.40;69.20;;;;;;4956877;28;20483;-90
2021/09/12 09:55:16;;;;;;;4.57;2.47;;;20.40;69.20;;;;;;4938009;29;20052;-88
2021/09/12 09:57:46;;;;;;;3.97;2.40;;;20.50;69.20;;;;;;4934422;29;20102;-84
2021/09/12 10:00:13;;;;;;;3.20;2.40;;;20.50;69.80;;;;;;4917107;29;20156;-85
2021/09/12 10:02:40;;;;;;;3.30;2.50;;;20.60;69.10;;;;;;4929006;29;20028;-87
2021/09/12 10:05:12;;;;;;;3.17;2.47;;;20.60;69.70;;;;;;4917367;29;20023;-82
2021/09/12 10:07:39;;;;;;;3.78;2.45;;;20.60;69.00;;;;;;4936217;29;20024;-85
2021/09/12 10:10:08;;;;;;;3.00;2.33;;;20.70;69.00;;;;;;4914622;29;20040;-83
2021/09/12 10:13:02;;;;;;;3.25;2.15;;;20.70;69.00;;;;;;4925067;29;20032;-87
2021/09/12 10:15:31;;;;;;;3.03;2.30;;;20.70;69.10;;;;;;4916092;29;20040;-93
2021/09/12 10:17:58;;;;;;;3.08;2.10;;;20.80;68.90;;;;;;4916402;29;20024;-93
2021/09/12 10:20:27;;;;;;;4.10;2.42;;;20.80;68.80;;;;;;4914318;29;20032;-90
2021/09/12 10:23:01;;;;;;;3.35;2.53;;;20.80;68.80;;;;;;4935066;29;20028;-84
2021/09/12 10:25:31;;;;;;;3.47;2.28;;;20.90;68.90;;;;;;4933416;29;20028;-87
2021/09/12 10:27:57;;;;;;;2.72;2.03;;;20.90;68.80;;;;;;4917335;29;20043;-87
2021/09/12 10:30:25;;;;;;;3.13;2.13;;;21.00;68.70;;;;;;4918877;29;20078;-89
2021/09/12 10:33:18;;;;;;;4.28;2.42;;;21.00;68.70;;;;;;4939131;29;20043;-87
2021/09/12 10:35:52;;;;;;;3.88;2.60;;;21.00;68.80;;;;;;4917116;29;20463;-85
2021/09/12 10:38:44;;;;;;;3.58;2.40;;;21.10;68.60;;;;;;4921813;29;20028;-87
2021/09/12 10:41:12;;;;;;;3.22;2.15;;;21.10;68.80;;;;;;4922574;29;20048;-92
2021/09/12 10:43:38;;;;;;;4.07;2.75;;;21.20;68.60;;;;;;4932599;29;20083;-88
2021/09/12 10:46:04;;;;;;;3.58;2.15;;;21.20;68.60;;;;;;4943460;29;20476;-80
2021/09/12 10:48:35;;;;;;;3.20;2.42;;;21.20;68.60;;;;;;4920927;29;20039;-82
2021/09/12 10:51:21;;;;;;;3.70;2.28;;;21.20;68.50;;;;;;4921641;29;20340;-83
2021/09/12 10:53:49;;;;;;;4.38;2.40;;;21.30;68.60;;;;;;4929104;29;20136;-90
2021/09/12 10:56:15;;;;;;;3.05;2.35;;;21.30;68.50;;;;;;4922539;29;20111;-90
2021/09/12 10:58:42;;;;;;;3.67;2.63;;;21.40;68.50;;;;;;4922945;29;20488;-90
2021/09/12 11:01:11;;;;;;;4.22;2.67;;;21.40;68.40;;;;;;4918869;29;20051;-91
2021/09/12 11:03:37;;;;;;;4.07;2.90;;;21.40;68.40;;;;;;4921689;29;20038;-91
2021/09/12 11:06:03;;;;;;;4.90;3.20;;;21.50;68.40;;;;;;4946260;29;20400;-91
2021/09/12 11:08:38;;;;;;;4.78;2.63;;;21.50;68.30;;;;;;4898637;29;20036;-89
2021/09/12 11:11:06;;;;;;;4.07;2.72;;;21.50;68.40;;;;;;4922585;29;20032;-90
2021/09/12 11:13:33;;;;;;;3.83;2.70;;;21.60;68.30;;;;;;4937107;29;20031;-91
2021/09/12 11:16:10;;;;;;;4.43;2.90;;;21.60;68.20;;;;;;4922939;29;20028;-91
2021/09/12 11:19:00;;;;;;;5.03;3.10;;;21.60;68.20;;;;;;4921900;29;20484;-91
2021/09/12 11:21:25;;;;;;;4.40;2.92;;;21.60;68.20;;;;;;4939087;29;20087;-91
2021/09/12 11:23:56;;;;;;;3.97;2.85;;;21.70;68.10;;;;;;4930715;29;20051;-87
2021/09/12 11:26:22;;;;;;;4.30;3.10;;;21.70;68.20;;;;;;4935942;29;20480;-86
2021/09/12 11:29:09;;;;;;;4.82;3.20;;;21.70;68.10;;;;;;4934377;29;20039;-89
2021/09/12 11:31:36;;;;;;;4.57;3.10;;;21.70;68.20;;;;;;4937737;29;20039;-91
2021/09/12 11:34:02;;;;;;;4.78;3.30;;;21.70;68.10;;;;;;4929766;29;20023;-89
2021/09/12 11:36:49;;;;;;;5.28;3.42;;;21.80;68.00;;;;;;4938216;29;20028;-95
2021/09/12 11:39:19;;;;;;;5.72;3.88;;;21.80;68.80;;;;;;4953428;29;20057;-90
2021/09/12 11:41:45;;;;;;;4.80;3.42;;;21.80;68.00;;;;;;4914311;29;20043;-88
2021/09/12 11:44:12;;;;;;;5.20;3.60;;;21.90;68.00;;;;;;4928556;29;20396;-89
2021/09/12 11:46:49;;;;;;;5.47;3.92;;;21.90;68.00;;;;;;4945074;29;20305;-93
2021/09/12 11:49:16;;;;;;;5.68;4.00;;;21.90;68.10;;;;;;4922141;29;20032;-90
2021/09/12 11:51:46;;;;;;;5.90;3.75;;;21.90;67.90;;;;;;4921896;29;20024;-89
2021/09/12 11:54:20;;;;;;;5.82;4.38;;;21.90;68.00;;;;;;4937220;29;20036;-88
2021/09/12 11:56:53;;;;;;;;;;;22.00;68.00;;;;;;4921897;29;20075;-88
2021/09/12 11:59:19;;;;;;;5.40;3.53;;;22.00;67.80;;;;;;4943183;29;20031;-87
2021/09/12 12:01:48;;;;;;;7.47;4.43;;;22.10;67.70;;;;;;4930772;29;20129;-90
2021/09/12 12:04:15;;;;;;;6.40;4.45;;;22.10;67.80;;;;;;4938959;29;20036;-85
2021/09/12 12:06:45;;;;;;;5.20;4.07;;;22.10;67.90;;;;;;4933778;29;20024;-86
2021/09/12 12:09:18;;;;;;;4.82;3.75;;;22.10;67.90;;;;;;4942296;29;20115;-85
2021/09/12 12:11:48;;;;;;;6.70;4.47;;;22.20;67.90;;;;;;4936894;29;20035;-86
2021/09/12 12:14:18;;;;;;;5.63;4.15;;;22.20;67.80;;;;;;4918864;29;20039;-85
2021/09/12 12:16:44;;;;;;;5.40;4.00;;;22.20;67.80;;;;;;4930646;29;20082;-86
2021/09/12 12:19:12;;;;;;;6.10;4.13;;;22.20;67.70;;;;;;4923595;29;20055;-85
2021/09/12 12:21:40;;;;;;;6.57;4.50;;;22.30;67.70;;;;;;4931305;29;20123;-86
2021/09/12 12:24:20;;;;;;;5.57;4.38;;;22.30;67.80;;;;;;4921710;29;20024;-86
2021/09/12 12:26:46;;;;;;;5.60;4.28;;;22.30;67.80;;;;;;4926116;29;20047;-84
2021/09/12 12:29:22;;;;;;;5.40;3.70;;;22.40;67.60;;;;;;4925324;29;20024;-86
2021/09/12 12:31:48;;;;;;;5.13;3.67;;;22.40;67.60;;;;;;4912862;29;20434;-85
2021/09/12 12:34:43;;;;;;;5.82;4.03;;;22.40;67.50;;;;;;4930560;29;20107;-85
2021/09/12 12:37:12;;;;;;;5.82;4.13;;;22.40;67.60;;;;;;4939383;28;20115;-84
2021/09/12 12:39:38;;;;;;;6.03;4.53;;;22.50;67.40;;;;;;4930470;29;20389;-85
2021/09/12 12:42:04;;;;;;;5.20;3.85;;;22.50;67.30;;;;;;4926408;29;20039;-84
2021/09/12 12:44:39;;;;;;;5.88;4.30;;;22.50;67.30;;;;;;4899049;29;20032;-84
2021/09/12 12:47:05;;;;;;;5.85;4.20;;;22.50;67.30;;;;;;4916300;29;20040;-85
2021/09/12 12:49:32;;;;;;;6.22;4.40;;;22.60;67.20;;;;;;4917477;29;20559;-83
2021/09/12 12:52:05;;;;;;;5.50;4.20;;;22.60;67.20;;;;;;4917971;29;20062;-84